Time;durP1;ratioP1;P1;durP2;ratioP2;P2;SDS_P1;SDS_P2;PMS_P1;PMS_P2;Temp;Humidity;BMP_temperature;BMP_pressure;BME280_temperature;BME280_humidity;BME280_pressure;Samples;Min_cycle;Max_cycle;Signal;HPM_P1;HPM_P2
2023/07/13 00:01:57;;;;;;;;;;;;;;;20.73;nan;100313.50;5015981;28;19967;-82
2023/07/13 00:04:24;;;;;;;;;;;;;;;20.76;nan;100329.19;5008790;28;20386;-82
2023/07/13 00:06:50;;;;;;;;;;;;;;;20.73;nan;100329.63;5026493;28;20410;-81
2023/07/13 00:09:17;;;;;;;;;;;;;;;20.71;nan;100326.34;5029127;28;19927;-81
2023/07/13 00:11:42;;;;;;;;;;;;;;;20.70;nan;100338.97;5038972;28;20377;-82
2023/07/13 00:14:09;;;;;;;;;;;;;;;20.63;nan;100338.22;5030346;28;19932;-83
2023/07/13 00:16:35;;;;;;;;;;;;;;;20.61;nan;100340.28;5039035;28;19951;-82
2023/07/13 00:19:00;;;;;;;;;;;;;;;20.61;nan;100336.78;5040697;28;19913;-83
2023/07/13 00:21:26;;;;;;;;;;;;;;;20.57;nan;100342.63;5040377;28;19989;-81
2023/07/13 00:23:51;;;;;;;;;;;;;;;20.54;nan;100337.63;5046473;28;19928;-82
2023/07/13 00:26:17;;;;;;;;;;;;;;;20.40;nan;100332.63;5033299;28;19913;-81
2023/07/13 00:28:42;;;;;;;;;;;;;;;20.34;nan;100335.16;5017450;28;19913;-83
2023/07/13 00:31:08;;;;;;;;;;;;;;;20.28;nan;100332.53;5019589;28;19921;-83
2023/07/13 00:33:37;;;;;;;;;;;;;;;20.22;nan;100328.06;5012658;28;19931;-83
2023/07/13 00:36:02;;;;;;;;;;;;;;;20.09;nan;100334.34;5031820;28;19971;-83
2023/07/13 00:38:27;;;;;;;;;;;;;;;20.05;nan;100333.97;5022311;28;19967;-82
2023/07/13 00:40:53;;;;;;;;;;;;;;;20.07;nan;100341.78;5027047;28;20063;-82
2023/07/13 00:43:19;;;;;;;;;;;;;;;20.01;nan;100338.13;5019062;28;19917;-82
2023/07/13 00:45:45;;;;;;;;;;;;;;;19.93;nan;100319.63;5037206;28;19913;-81
2023/07/13 00:48:14;;;;;;;;;;;;;;;19.88;nan;100328.31;5022477;28;19913;-83
2023/07/13 00:50:40;;;;;;;;;;;;;;;19.78;nan;100330.66;5029096;28;19917;-80
2023/07/13 00:53:05;;;;;;;;;;;;;;;19.70;nan;100329.06;5030511;28;20013;-81
2023/07/13 00:55:30;;;;;;;;;;;;;;;19.62;nan;100313.19;5031558;28;20459;-83
2023/07/13 00:57:56;;;;;;;;;;;;;;;19.49;nan;100329.34;5010382;28;20002;-82
2023/07/13 01:00:22;;;;;;;;;;;;;;;19.39;nan;100334.38;5030262;28;19921;-82
2023/07/13 01:02:48;;;;;;;;;;;;;;;19.24;nan;100322.06;5036696;28;19923;-81
2023/07/13 01:05:14;;;;;;;;;;;;;;;19.21;nan;100322.50;5019616;28;19933;-82
2023/07/13 01:07:40;;;;;;;;;;;;;;;19.15;nan;100317.16;5025512;28;19917;-82
2023/07/13 01:10:05;;;;;;;;;;;;;;;;;;5026726;28;19921;-82
2023/07/13 01:12:31;;;;;;;;;;;;;;;18.95;nan;100317.25;5029696;28;19988;-81
2023/07/13 01:15:00;;;;;;;;;;;;;;;18.82;nan;100313.56;5025261;28;19921;-82
2023/07/13 01:17:25;;;;;;;;;;;;;;;18.72;nan;100317.72;5034989;28;19936;-82
2023/07/13 01:19:51;;;;;;;;;;;;;;;18.67;nan;100321.03;5038809;28;19914;-80
2023/07/13 01:22:17;;;;;;;;;;;;;;;18.59;nan;100327.44;5031641;28;19917;-81
2023/07/13 01:24:44;;;;;;;;;;;;;;;18.54;nan;100326.41;5032917;28;20004;-81
2023/07/13 01:27:11;;;;;;;;;;;;;;;18.51;nan;100321.47;5027212;28;20004;-80
2023/07/13 01:29:41;;;;;;;;;;;;;;;18.45;nan;100337.34;5014735;28;19924;-81
2023/07/13 01:32:08;;;;;;;;;;;;;;;18.38;nan;100333.03;5026980;28;19917;-80
2023/07/13 01:34:33;;;;;;;;;;;;;;;18.27;nan;100331.78;5017331;28;19917;-81
2023/07/13 01:36:58;;;;;;;;;;;;;;;18.15;nan;100333.44;5011136;28;19917;-81
2023/07/13 01:39:23;;;;;;;;;;;;;;;18.01;nan;100317.38;5029945;28;19913;-80
2023/07/13 01:41:49;;;;;;;;;;;;;;;17.92;nan;100323.94;5014896;28;19917;-80
2023/07/13 01:44:14;;;;;;;;;;;;;;;17.80;nan;100330.91;5021400;28;19917;-80
2023/07/13 01:46:39;;;;;;;;;;;;;;;17.69;nan;100331.53;5034671;28;19924;-81
2023/07/13 01:49:04;;;;;;;;;;;;;;;17.61;nan;100332.53;5029589;28;19940;-81
2023/07/13 01:51:29;;;;;;;;;;;;;;;17.57;nan;100316.06;5016849;28;20122;-81
2023/07/13 01:53:55;;;;;;;;;;;;;;;17.54;nan;100332.53;5029268;28;20018;-82
2023/07/13 01:56:20;;;;;;;;;;;;;;;17.53;nan;100325.53;5006168;28;19917;-80
2023/07/13 01:58:45;;;;;;;;;;;;;;;17.46;nan;100345.25;5024649;28;20440;-80
2023/07/13 02:01:10;;;;;;;;;;;;;;;17.37;nan;100347.28;5030028;28;19912;-84
2023/07/13 02:03:36;;;;;;;;;;;;;;;17.37;nan;100337.41;5024975;28;19917;-84
2023/07/13 02:06:01;;;;;;;;;;;;;;;17.40;nan;100336.19;5008471;28;19937;-85
2023/07/13 02:08:26;;;;;;;;;;;;;;;17.49;nan;100350.19;5005847;28;19913;-84
2023/07/13 02:10:51;;;;;;;;;;;;;;;17.44;nan;100364.16;5012569;28;20306;-82
2023/07/13 02:13:16;;;;;;;;;;;;;;;17.38;nan;100354.28;5021420;28;19913;-83
2023/07/13 02:15:42;;;;;;;;;;;;;;;17.29;nan;100355.47;5010545;28;20011;-81
2023/07/13 02:18:07;;;;;;;;;;;;;;;17.22;nan;100360.78;5011536;28;20270;-84
2023/07/13 02:20:32;;;;;;;;;;;;;;;17.16;nan;100361.56;5013902;28;19913;-83
2023/07/13 02:22:57;;;;;;;;;;;;;;;17.10;nan;100357.84;5013120;28;19999;-81
2023/07/13 02:25:23;;;;;;;;;;;;;;;17.08;nan;100359.91;5022862;28;19914;-83
2023/07/13 02:27:48;;;;;;;;;;;;;;;16.95;nan;100358.00;5032844;28;19913;-82
2023/07/13 02:30:14;;;;;;;;;;;;;;;16.91;nan;100359.41;5005458;28;20007;-85
2023/07/13 02:32:39;;;;;;;;;;;;;;;16.90;nan;100357.78;5010319;28;20056;-83
2023/07/13 02:35:04;;;;;;;;;;;;;;;16.86;nan;100361.84;5028474;28;20402;-82
2023/07/13 02:37:29;;;;;;;;;;;;;;;16.81;nan;100352.78;5001464;28;19913;-83
2023/07/13 02:39:55;;;;;;;;;;;;;;;16.74;nan;100353.53;5006587;28;19913;-82
2023/07/13 02:42:20;;;;;;;;;;;;;;;;;;5030900;28;19921;-82
2023/07/13 02:44:45;;;;;;;;;;;;;;;16.73;nan;100522.78;5007109;28;19913;-83
2023/07/13 02:47:10;;;;;;;;;;;;;;;16.76;nan;100525.06;5016373;28;19917;-83
2023/07/13 02:49:36;;;;;;;;;;;;;;;16.77;nan;100531.22;5010286;28;19913;-79
2023/07/13 02:52:01;;;;;;;;;;;;;;;16.75;nan;100531.41;5009764;28;19921;-79
2023/07/13 02:54:26;;;;;;;;;;;;;;;16.70;nan;100530.34;5010254;28;19929;-79
2023/07/13 02:56:51;;;;;;;;;;;;;;;16.67;nan;100533.41;5028304;28;19928;-81
2023/07/13 02:59:16;;;;;;;;;;;;;;;16.62;nan;100531.31;5038430;28;19913;-79
2023/07/13 03:01:42;;;;;;;;;;;;;;;16.59;nan;100522.84;5022985;28;19917;-80
2023/07/13 03:04:07;;;;;;;;;;;;;;;16.55;nan;100523.22;5007840;28;20042;-80
2023/07/13 03:06:32;;;;;;;;;;;;;;;16.52;nan;100522.78;5034269;28;20145;-81
2023/07/13 03:08:58;;;;;;;;;;;;;;;16.47;nan;100522.50;5024982;28;20000;-82
2023/07/13 03:11:23;;;;;;;;;;;;;;;16.46;nan;100536.88;5033090;28;19928;-80
2023/07/13 03:13:48;;;;;;;;;;;;;;;16.46;nan;100524.38;5030015;28;20011;-81
2023/07/13 03:16:15;;;;;;;;;;;;;;;16.48;nan;100524.19;5031638;28;19980;-81
2023/07/13 03:18:41;;;;;;;;;;;;;;;16.47;nan;100528.69;5035482;28;19936;-82
2023/07/13 03:21:06;;;;;;;;;;;;;;;16.45;nan;100529.91;5023794;28;19917;-82
2023/07/13 03:23:31;;;;;;;;;;;;;;;16.51;nan;100529.13;5026340;28;19959;-80
2023/07/13 03:26:09;;;;;;;;;;;;;;;16.54;nan;100528.75;5027055;28;19917;-79
2023/07/13 03:28:34;;;;;;;;;;;;;;;16.52;nan;100533.47;5017427;28;19918;-80
2023/07/13 03:31:04;;;;;;;;;;;;;;;16.49;nan;100531.16;5012909;28;20015;-81
2023/07/13 03:33:29;;;;;;;;;;;;;;;16.43;nan;100529.28;5035420;28;19991;-81
2023/07/13 03:35:54;;;;;;;;;;;;;;;16.34;nan;100532.03;5037789;28;19913;-80
2023/07/13 03:38:19;;;;;;;;;;;;;;;16.27;nan;100544.50;4994910;28;19975;-80
2023/07/13 03:40:45;;;;;;;;;;;;;;;16.21;nan;100539.94;5004489;28;19948;-81
2023/07/13 03:43:10;;;;;;;;;;;;;;;16.10;nan;100540.41;5024950;28;19920;-80
2023/07/13 03:45:38;;;;;;;;;;;;;;;16.02;nan;100535.19;5018064;28;19917;-81
2023/07/13 03:48:03;;;;;;;;;;;;;;;15.99;nan;100544.38;4993964;28;19944;-81
2023/07/13 03:50:28;;;;;;;;;;;;;;;15.94;nan;100538.78;5025935;28;19916;-82
2023/07/13 03:52:53;;;;;;;;;;;;;;;15.89;nan;100536.66;5022633;28;19913;-81
2023/07/13 03:55:19;;;;;;;;;;;;;;;15.90;nan;100542.84;5022821;28;20382;-81
2023/07/13 03:57:44;;;;;;;;;;;;;;;15.89;nan;100543.84;5031285;28;20037;-82
2023/07/13 04:00:10;;;;;;;;;;;;;;;15.87;nan;100543.19;5010120;28;19917;-81
2023/07/13 04:02:37;;;;;;;;;;;;;;;15.86;nan;100539.72;5008881;28;19917;-82
2023/07/13 04:05:02;;;;;;;;;;;;;;;15.88;nan;100544.88;5037566;28;20004;-82
2023/07/13 04:07:27;;;;;;;;;;;;;;;15.93;nan;100550.47;5025851;28;19960;-81
2023/07/13 04:09:53;;;;;;;;;;;;;;;15.99;nan;100546.22;5018029;28;19913;-81
2023/07/13 04:12:18;;;;;;;;;;;;;;;16.01;nan;100545.00;5030101;28;20401;-81
2023/07/13 04:14:43;;;;;;;;;;;;;;;16.01;nan;100545.00;5034718;28;19913;-81
2023/07/13 04:17:08;;;;;;;;;;;;;;;16.00;nan;100547.88;5040319;28;19920;-82
2023/07/13 04:19:34;;;;;;;;;;;;;;;15.99;nan;100544.38;5039312;28;20000;-81
2023/07/13 04:21:59;;;;;;;;;;;;;;;15.96;nan;100546.59;5048137;28;19913;-81
2023/07/13 04:24:24;;;;;;;;;;;;;;;15.96;nan;100552.75;5052558;28;19921;-83
2023/07/13 04:26:49;;;;;;;;;;;;;;;16.05;nan;100550.81;5026872;28;19913;-83
2023/07/13 04:29:15;;;;;;;;;;;;;;;16.16;nan;100553.00;5034837;28;19913;-83
2023/07/13 04:31:40;;;;;;;;;;;;;;;16.30;nan;100557.47;5041263;28;19913;-83
2023/07/13 04:34:05;;;;;;;;;;;;;;;16.45;nan;100567.28;5022517;28;19913;-83
2023/07/13 04:36:30;;;;;;;;;;;;;;;16.53;nan;100564.47;5032538;28;20391;-83
2023/07/13 04:38:56;;;;;;;;;;;;;;;16.60;nan;100569.88;5010926;28;19913;-83
2023/07/13 04:41:21;;;;;;;;;;;;;;;16.65;nan;100565.63;5035134;28;19921;-83
2023/07/13 04:43:47;;;;;;;;;;;;;;;16.71;nan;100567.53;5036970;28;19921;-85
2023/07/13 04:46:18;;;;;;;;;;;;;;;16.71;nan;100569.38;5007025;28;20393;-83
2023/07/13 04:48:43;;;;;;;;;;;;;;;16.74;nan;100569.00;5018576;28;19914;-82
2023/07/13 04:51:09;;;;;;;;;;;;;;;16.81;nan;100571.78;5010929;28;19920;-84
2023/07/13 04:53:34;;;;;;;;;;;;;;;16.94;nan;100577.22;5037664;28;19944;-84
2023/07/13 04:56:00;;;;;;;;;;;;;;;17.06;nan;100583.69;5010439;28;19943;-83
2023/07/13 04:58:25;;;;;;;;;;;;;;;17.11;nan;100580.44;5034188;28;19920;-83
2023/07/13 05:00:51;;;;;;;;;;;;;;;17.15;nan;100579.84;5017688;28;19923;-84
2023/07/13 05:03:16;;;;;;;;;;;;;;;17.24;nan;100582.41;5003953;28;19914;-83
2023/07/13 05:05:41;;;;;;;;;;;;;;;17.29;nan;100580.78;5003609;28;19917;-84
2023/07/13 05:08:07;;;;;;;;;;;;;;;17.41;nan;100583.75;5012754;28;19924;-84
2023/07/13 05:10:32;;;;;;;;;;;;;;;17.49;nan;100582.75;5034651;28;19917;-83
2023/07/13 05:12:58;;;;;;;;;;;;;;;17.58;nan;100579.75;5034598;28;19913;-83
2023/07/13 05:15:23;;;;;;;;;;;;;;;17.68;nan;100591.94;5016311;28;19936;-83
2023/07/13 05:17:49;;;;;;;;;;;;;;;17.77;nan;100588.09;5000804;28;19913;-83
2023/07/13 05:20:14;;;;;;;;;;;;;;;17.83;nan;100595.38;5021674;28;19924;-84
2023/07/13 05:22:39;;;;;;;;;;;;;;;17.85;nan;100601.31;5009344;28;19917;-83
2023/07/13 05:25:05;;;;;;;;;;;;;;;17.86;nan;100602.97;5004283;28;19917;-82
2023/07/13 05:27:30;;;;;;;;;;;;;;;17.90;nan;100603.41;5021403;28;20565;-83
2023/07/13 05:29:56;;;;;;;;;;;;;;;17.91;nan;100605.06;5023680;28;19917;-86
2023/07/13 05:32:21;;;;;;;;;;;;;;;17.92;nan;100599.50;5014246;28;19921;-82
2023/07/13 05:34:46;;;;;;;;;;;;;;;17.98;nan;100609.41;5035796;28;20015;-85
2023/07/13 05:37:11;;;;;;;;;;;;;;;17.98;nan;100603.25;5026578;28;19914;-82
2023/07/13 05:39:36;;;;;;;;;;;;;;;18.00;nan;100603.88;5013742;28;19988;-83
2023/07/13 05:42:02;;;;;;;;;;;;;;;18.14;nan;100602.91;5023608;28;19938;-83
2023/07/13 05:44:27;;;;;;;;;;;;;;;18.36;nan;100608.97;5034705;28;19917;-81
2023/07/13 05:46:53;;;;;;;;;;;;;;;18.59;nan;100605.94;5032707;28;19917;-81
2023/07/13 05:49:18;;;;;;;;;;;;;;;18.83;nan;100609.09;5035636;28;19940;-82
2023/07/13 05:51:43;;;;;;;;;;;;;;;19.03;nan;100615.31;5018714;28;19913;-79
2023/07/13 05:54:09;;;;;;;;;;;;;;;19.14;nan;100621.06;5027106;28;19913;-81
2023/07/13 05:56:34;;;;;;;;;;;;;;;19.24;nan;100622.31;5017814;28;19944;-83
2023/07/13 05:58:59;;;;;;;;;;;;;;;19.56;nan;100627.06;5020336;28;19913;-82
2023/07/13 06:01:24;;;;;;;;;;;;;;;19.93;nan;100625.56;5008971;28;20293;-82
2023/07/13 06:03:50;;;;;;;;;;;;;;;20.24;nan;100627.53;5032275;28;19921;-85
2023/07/13 06:06:15;;;;;;;;;;;;;;;20.42;nan;100626.81;5014509;28;20421;-84
2023/07/13 06:08:40;;;;;;;;;;;;;;;20.48;nan;100622.44;5024010;28;20375;-83
2023/07/13 06:11:07;;;;;;;;;;;;;;;20.33;nan;100636.13;5024079;28;19913;-84
2023/07/13 06:13:33;;;;;;;;;;;;;;;20.23;nan;100646.53;5029631;28;19913;-82
2023/07/13 06:15:58;;;;;;;;;;;;;;;20.13;nan;100641.59;5008106;28;19959;-84
2023/07/13 06:18:23;;;;;;;;;;;;;;;20.08;nan;100641.41;5025433;28;20027;-82
2023/07/13 06:20:49;;;;;;;;;;;;;;;20.02;nan;100642.25;4994243;28;19924;-82
2023/07/13 06:23:14;;;;;;;;;;;;;;;20.21;nan;100645.91;5011094;28;19917;-83
2023/07/13 06:25:40;;;;;;;;;;;;;;;20.52;nan;100646.00;5002045;28;19996;-82
2023/07/13 06:28:05;;;;;;;;;;;;;;;21.18;nan;100649.31;5011054;28;19913;-82
2023/07/13 06:30:31;;;;;;;;;;;;;;;21.88;nan;100656.38;5028800;28;19917;-84
2023/07/13 06:32:56;;;;;;;;;;;;;;;22.18;nan;100654.56;5020960;28;19909;-83
2023/07/13 06:35:22;;;;;;;;;;;;;;;22.52;nan;100663.09;5018560;28;19967;-82
2023/07/13 06:37:47;;;;;;;;;;;;;;;23.02;nan;100667.41;5028042;28;20325;-83
2023/07/13 06:40:12;;;;;;;;;;;;;;;23.43;nan;100660.31;5027922;28;19928;-83
2023/07/13 06:42:38;;;;;;;;;;;;;;;23.90;nan;100671.97;5010242;28;19947;-82
2023/07/13 06:45:04;;;;;;;;;;;;;;;24.37;nan;100671.88;5006253;28;19933;-83
2023/07/13 06:47:29;;;;;;;;;;;;;;;24.80;nan;100670.56;5015674;28;19920;-84
2023/07/13 06:49:54;;;;;;;;;;;;;;;24.65;nan;100674.88;5014384;28;20302;-83
2023/07/13 06:52:19;;;;;;;;;;;;;;;24.93;nan;100671.31;5015101;28;19928;-83
2023/07/13 06:54:45;;;;;;;;;;;;;;;25.34;nan;100680.19;5009373;28;19921;-84
2023/07/13 06:57:10;;;;;;;;;;;;;;;25.75;nan;100681.59;5017860;28;20203;-84
2023/07/13 06:59:35;;;;;;;;;;;;;;;26.16;nan;100681.38;5005400;28;19921;-84
2023/07/13 07:02:00;;;;;;;;;;;;;;;26.53;nan;100686.13;5016052;28;19931;-82
2023/07/13 07:04:26;;;;;;;;;;;;;;;26.88;nan;100674.88;5024779;28;19932;-84
2023/07/13 07:06:51;;;;;;;;;;;;;;;27.20;nan;100687.69;5017199;28;19924;-83
2023/07/13 07:09:17;;;;;;;;;;;;;;;27.46;nan;100685.97;5017567;28;19944;-84
2023/07/13 07:11:42;;;;;;;;;;;;;;;27.67;nan;100684.22;5017737;28;20397;-84
2023/07/13 07:14:08;;;;;;;;;;;;;;;27.57;nan;100684.97;5016498;28;19921;-83
2023/07/13 07:16:33;;;;;;;;;;;;;;;27.56;nan;100696.94;5016448;28;20255;-82
2023/07/13 07:18:58;;;;;;;;;;;;;;;27.78;nan;100690.56;5004809;28;19917;-84
2023/07/13 07:21:23;;;;;;;;;;;;;;;28.01;nan;100686.63;5014386;28;19917;-83
2023/07/13 07:23:49;;;;;;;;;;;;;;;28.03;nan;100682.59;5013680;28;20004;-84
2023/07/13 07:26:14;;;;;;;;;;;;;;;28.19;nan;100690.81;5031991;28;19982;-84
2023/07/13 07:28:39;;;;;;;;;;;;;;;28.19;nan;100686.19;5003818;28;19956;-83
2023/07/13 07:31:04;;;;;;;;;;;;;;;28.07;nan;100682.88;5010151;28;20393;-82
2023/07/13 07:33:30;;;;;;;;;;;;;;;28.12;nan;100688.31;5013186;28;19914;-82
2023/07/13 07:35:55;;;;;;;;;;;;;;;28.25;nan;100685.13;5003721;28;19918;-83
2023/07/13 07:38:20;;;;;;;;;;;;;;;28.23;nan;100684.56;5025971;28;19920;-83
2023/07/13 07:40:45;;;;;;;;;;;;;;;28.48;nan;100686.56;5022278;28;19964;-84
2023/07/13 07:43:11;;;;;;;;;;;;;;;28.86;nan;100695.38;5029734;28;19944;-83
2023/07/13 07:45:37;;;;;;;;;;;;;;;28.79;nan;100695.66;5019530;28;19919;-84
2023/07/13 07:48:03;;;;;;;;;;;;;;;28.63;nan;100688.53;5001948;28;19992;-84
2023/07/13 07:50:28;;;;;;;;;;;;;;;28.84;nan;100688.56;5005798;28;20345;-83
2023/07/13 07:52:55;;;;;;;;;;;;;;;28.93;nan;100687.75;5000706;28;20026;-84
2023/07/13 07:55:21;;;;;;;;;;;;;;;29.52;nan;100683.72;5010421;28;19957;-83
2023/07/13 07:57:46;;;;;;;;;;;;;;;29.42;nan;100689.19;5019387;28;19964;-84
2023/07/13 08:00:11;;;;;;;;;;;;;;;29.55;nan;100687.78;5011918;28;20415;-84
2023/07/13 08:02:37;;;;;;;;;;;;;;;29.09;nan;100687.81;5015701;28;19962;-83
2023/07/13 08:05:02;;;;;;;;;;;;;;;28.88;nan;100689.69;5026701;28;19913;-85
2023/07/13 08:07:27;;;;;;;;;;;;;;;29.08;nan;100688.91;5026949;28;20363;-82
2023/07/13 08:09:53;;;;;;;;;;;;;;;29.09;nan;100694.09;5010073;28;19975;-84
2023/07/13 08:12:18;;;;;;;;;;;;;;;29.31;nan;100696.53;5016560;28;19917;-83
2023/07/13 08:14:43;;;;;;;;;;;;;;;29.14;nan;100687.81;5017847;28;20353;-83
2023/07/13 08:17:08;;;;;;;;;;;;;;;29.45;nan;100696.00;5026090;28;19917;-84
2023/07/13 08:19:33;;;;;;;;;;;;;;;30.27;nan;100688.47;5006031;28;19923;-82
2023/07/13 08:21:59;;;;;;;;;;;;;;;30.99;nan;100699.81;5021789;28;19924;-83
2023/07/13 08:24:24;;;;;;;;;;;;;;;31.16;nan;100685.75;5013163;28;19928;-82
2023/07/13 08:26:50;;;;;;;;;;;;;;;31.42;nan;100693.78;5011335;28;19917;-84
2023/07/13 08:29:15;;;;;;;;;;;;;;;31.53;nan;100682.47;5017102;28;20457;-84
2023/07/13 08:31:41;;;;;;;;;;;;;;;31.79;nan;100693.09;5015724;28;19964;-83
2023/07/13 08:34:06;;;;;;;0.00;0.00;;;;;;;31.43;nan;100685.28;5016197;28;19925;-83
2023/07/13 08:36:31;;;;;;;0.00;0.00;;;;;;;31.33;nan;100688.06;4998005;28;20038;-84
2023/07/13 08:38:56;;;;;;;0.00;0.00;;;;;;;31.25;nan;100684.06;5002430;28;20362;-83
2023/07/13 08:41:22;;;;;;;0.00;0.00;;;;;;;31.47;nan;100686.34;5004731;28;20515;-83
2023/07/13 08:43:55;;;;;;;0.00;0.00;;;;;;;32.09;nan;100689.25;5025136;28;20407;-84
2023/07/13 08:46:30;;;;;;;0.00;0.00;;;;;;;32.73;nan;100695.28;5004417;28;20034;-83
2023/07/13 08:48:58;;;;;;;0.00;0.00;;;;;;;33.43;nan;100682.66;5004200;28;20056;-81
2023/07/13 08:51:32;;;;;;;0.00;0.00;;;;;;;33.81;nan;100677.03;5019827;28;20050;-84
2023/07/13 08:54:15;;;;;;;0.00;0.00;;;;;;;34.12;nan;100669.03;4992350;28;20057;-82
2023/07/13 08:56:40;;;;;;;0.00;0.00;;;;;;;34.47;nan;100672.94;4995570;28;20027;-85
2023/07/13 08:59:13;;;;;;;0.00;0.00;;;;;;;34.67;nan;100676.34;5003753;28;20037;-84
2023/07/13 09:01:57;;;;;;;0.00;0.00;;;;;;;35.06;nan;100685.84;4998237;28;20101;-84
2023/07/13 09:04:27;;;;;;;0.00;0.00;;;;;;;34.21;nan;100677.38;5021825;28;20037;-85
2023/07/13 09:07:02;;;;;;;0.00;0.00;;;;;;;33.88;nan;100669.22;5008037;28;20033;-84
2023/07/13 09:09:41;;;;;;;0.00;0.00;;;;;;;33.96;nan;100673.19;5013377;28;20399;-85
2023/07/13 09:12:44;;;;;;;0.00;0.00;;;;;;;33.47;nan;100663.69;5015993;28;20105;-84
2023/07/13 09:15:22;;;;;;;0.00;0.00;;;;;;;33.57;nan;100672.56;4976325;28;20042;-85
2023/07/13 09:17:55;;;;;;;0.00;0.00;;;;;;;32.30;nan;100664.38;5008106;28;20039;-84
2023/07/13 09:20:30;;;;;;;0.00;0.00;;;;;;;31.98;nan;100668.59;5003340;28;20407;-84
2023/07/13 09:22:56;;;;;;;;;;;;;;;31.47;nan;100666.41;5006810;28;20038;-86
2023/07/13 09:25:35;;;;;;;;;;;;;;;31.37;nan;100664.53;5008637;28;19987;-84
2023/07/13 09:28:09;;;;;;;;;;;;;;;32.46;nan;100649.34;5006759;28;19929;-85
2023/07/13 09:30:47;;;;;;;0.00;0.00;;;;;;;33.75;nan;100661.78;5007825;28;19975;-85
2023/07/13 09:33:14;;;;;;;0.00;0.00;;;;;;;34.07;nan;100657.31;5000221;28;20128;-84
2023/07/13 09:35:39;;;;;;;0.00;0.00;;;;;;;33.87;nan;100656.59;5009180;28;20034;-83
2023/07/13 09:38:13;;;;;;;0.00;0.00;;;;;;;34.31;nan;100654.38;5001872;28;20056;-86
2023/07/13 09:40:44;;;;;;;0.00;0.00;;;;;;;33.70;nan;100653.66;5007792;28;20021;-84
2023/07/13 09:43:14;;;;;;;0.00;0.00;;;;;;;32.25;nan;100657.06;5006430;28;20502;-85
2023/07/13 09:45:40;;;;;;;0.00;0.00;;;;;;;31.28;nan;100650.69;5003177;28;20041;-84
2023/07/13 09:48:11;;;;;;;0.00;0.00;;;;;;;30.32;nan;100660.34;5009612;28;20029;-86
2023/07/13 09:50:36;;;;;;;;;;;;;;;29.72;nan;100655.63;5018704;28;20155;-86
2023/07/13 09:53:02;;;;;;;0.00;0.00;;;;;;;29.30;nan;100645.06;5023800;28;20386;-84
2023/07/13 09:55:40;;;;;;;0.00;0.00;;;;;;;28.69;nan;100651.28;5016105;28;20033;-84
2023/07/13 09:58:19;;;;;;;0.00;0.00;;;;;;;28.94;nan;100653.22;5012179;28;20037;-85
2023/07/13 10:00:57;;;;;;;0.00;0.00;;;;;;;28.67;nan;100653.44;5021081;28;20519;-84
2023/07/13 10:03:26;;;;;;;0.00;0.00;;;;;;;28.49;nan;100646.63;5021374;28;20087;-83
2023/07/13 10:05:52;;;;;;;0.00;0.00;;;;;;;28.27;nan;100652.22;5018752;28;20210;-84
2023/07/13 10:08:22;;;;;;;0.00;0.00;;;;;;;28.13;nan;100652.72;5014329;28;20033;-83
2023/07/13 10:10:55;;;;;;;0.00;0.00;;;;;;;28.03;nan;100649.13;5006771;28;20037;-84
2023/07/13 10:13:28;;;;;;;0.00;0.00;;;;;;;27.75;nan;100657.41;5001357;28;20057;-84
2023/07/13 10:15:57;;;;;;;0.00;0.00;;;;;;;27.46;nan;100654.22;5003431;28;20090;-85
2023/07/13 10:18:25;;;;;;;0.00;0.00;;;;;;;27.27;nan;100659.25;5004362;28;20065;-85
2023/07/13 10:20:59;;;;;;;0.00;0.00;;;;;;;27.27;nan;100656.53;5009539;28;20065;-84
2023/07/13 10:23:30;;;;;;;0.00;0.00;;;;;;;27.12;nan;100661.78;5005384;28;20600;-85
2023/07/13 10:25:58;;;;;;;0.00;0.00;;;;;;;26.93;nan;100661.34;5017744;28;20408;-85
2023/07/13 10:28:36;;;;;;;0.00;0.00;;;;;;;26.80;nan;100659.06;5019791;28;20153;-85
2023/07/13 10:31:05;;;;;;;0.00;0.00;;;;;;;26.63;nan;100656.47;5015599;28;20057;-85
2023/07/13 10:33:31;;;;;;;0.00;0.00;;;;;;;26.38;nan;100646.94;4998174;28;20423;-84
2023/07/13 10:36:35;;;;;;;0.00;0.00;;;;;;;26.24;nan;100657.38;5012996;28;20124;-84
2023/07/13 10:39:04;;;;;;;0.10;0.10;;;;;;;26.47;nan;100663.56;5015788;28;20033;-84
2023/07/13 10:41:36;;;;;;;0.00;0.00;;;;;;;26.98;nan;100663.31;5026562;28;20037;-84
2023/07/13 10:44:04;;;;;;;0.00;0.00;;;;;;;27.28;nan;100663.59;5004749;28;20040;-84
2023/07/13 10:46:30;;;;;;;0.00;0.00;;;;;;;27.47;nan;100657.75;4998353;28;20034;-84
2023/07/13 10:49:04;;;;;;;0.00;0.00;;;;;;;27.78;nan;100658.75;4984610;28;20035;-84
2023/07/13 10:51:30;;;;;;;0.00;0.00;;;;;;;27.64;nan;100663.84;5004157;28;20026;-85
2023/07/13 10:54:21;;;;;;;0.00;0.00;;;;;;;27.39;nan;100660.94;5002718;28;20635;-84
2023/07/13 10:56:48;;;;;;;;;;;;;;;27.24;nan;100653.50;5012754;28;20034;-84
2023/07/13 10:59:31;;;;;;;0.00;0.00;;;;;;;27.41;nan;100658.78;5022469;28;20302;-84
2023/07/13 11:02:04;;;;;;;0.00;0.00;;;;;;;27.79;nan;100659.56;5008045;28;20095;-84
2023/07/13 11:04:41;;;;;;;0.00;0.00;;;;;;;28.35;nan;100652.50;5009728;28;20099;-83
2023/07/13 11:07:19;;;;;;;0.00;0.00;;;;;;;30.21;nan;100654.91;4993432;28;20042;-85
2023/07/13 11:09:52;;;;;;;0.00;0.00;;;;;;;32.81;nan;100655.44;5002007;28;20036;-84
2023/07/13 11:12:28;;;;;;;0.00;0.00;;;;;;;34.88;nan;100657.47;5018886;28;20038;-86
2023/07/13 11:15:03;;;;;;;0.00;0.00;;;;;;;35.14;nan;100663.16;5015444;28;20470;-85
2023/07/13 11:18:00;;;;;;;0.00;0.00;;;;;;;33.20;nan;100655.09;5010069;28;20037;-85
2023/07/13 11:20:37;;;;;;;0.00;0.00;;;;;;;31.73;nan;100656.81;4994248;28;20042;-85
2023/07/13 11:23:18;;;;;;;0.00;0.00;;;;;;;31.15;nan;100658.72;4995964;28;20044;-85
2023/07/13 11:25:44;;;;;;;0.00;0.00;;;;;;;31.04;nan;100658.81;4993592;28;20037;-83
2023/07/13 11:28:10;;;;;;;0.00;0.00;;;;;;;30.71;nan;100656.84;5011385;28;20117;-84
2023/07/13 11:30:46;;;;;;;0.00;0.00;;;;;;;29.50;nan;100647.75;5002242;28;20153;-83
2023/07/13 11:33:17;;;;;;;0.00;0.00;;;;;;;29.55;nan;100645.00;5005724;28;20499;-84
2023/07/13 11:35:53;;;;;;;;;;;;;;;30.54;nan;100646.31;5006997;28;20403;-84
2023/07/13 11:38:31;;;;;;;0.00;0.00;;;;;;;30.66;nan;100649.50;5001043;28;19955;-84
2023/07/13 11:41:03;;;;;;;0.00;0.00;;;;;;;30.53;nan;100644.69;5006556;28;20187;-83
2023/07/13 11:43:29;;;;;;;0.00;0.00;;;;;;;30.32;nan;100643.97;4995398;28;20033;-84
2023/07/13 11:45:55;;;;;;;0.00;0.00;;;;;;;30.51;nan;100644.13;5015715;28;20049;-84
2023/07/13 11:48:27;;;;;;;0.00;0.00;;;;;;;31.09;nan;100647.03;5012008;28;20097;-84
2023/07/13 11:50:59;;;;;;;0.00;0.00;;;;;;;30.86;nan;100634.94;5007188;28;20099;-84
2023/07/13 11:53:28;;;;;;;0.00;0.00;;;;;;;32.77;nan;100640.72;5015070;28;20419;-84
2023/07/13 11:55:54;;;;;;;0.00;0.00;;;;;;;34.05;nan;100635.66;5015413;28;20513;-85
2023/07/13 11:58:23;;;;;;;0.00;0.00;;;;;;;35.54;nan;100632.97;5015024;28;20040;-85
2023/07/13 12:00:50;;;;;;;0.00;0.00;;;;;;;36.83;nan;100632.69;5015561;28;20391;-84
2023/07/13 12:03:20;;;;;;;0.00;0.00;;;;;;;36.21;nan;100647.56;5015666;28;20036;-85
2023/07/13 12:06:02;;;;;;;0.00;0.00;;;;;;;35.41;nan;100631.91;5027827;28;20173;-85
2023/07/13 12:08:28;;;;;;;0.00;0.00;;;;;;;33.27;nan;100637.44;5015443;28;20034;-84
2023/07/13 12:11:00;;;;;;;0.00;0.00;;;;;;;31.61;nan;100637.28;5017989;28;20040;-84
2023/07/13 12:13:29;;;;;;;0.00;0.00;;;;;;;30.43;nan;100635.44;5022300;28;20045;-84
2023/07/13 12:15:56;;;;;;;0.00;0.00;;;;;;;29.09;nan;100627.94;5022922;28;20364;-84
2023/07/13 12:18:28;;;;;;;0.00;0.00;;;;;;;28.79;nan;100641.22;5011672;28;20059;-84
2023/07/13 12:20:57;;;;;;;0.00;0.00;;;;;;;29.32;nan;100634.69;5015929;28;20088;-84
2023/07/13 12:23:32;;;;;;;0.00;0.00;;;;;;;30.42;nan;100635.75;5011434;28;20030;-85
2023/07/13 12:26:01;;;;;;;0.00;0.00;;;;;;;30.44;nan;100647.22;5037985;28;20036;-85
2023/07/13 12:28:36;;;;;;;0.00;0.00;;;;;;;30.29;nan;100642.63;5007697;28;20498;-85
2023/07/13 12:31:04;;;;;;;0.00;0.00;;;;;;;29.94;nan;100632.66;5010018;28;20437;-84
2023/07/13 12:33:32;;;;;;;0.00;0.00;;;;;;;29.46;nan;100643.13;5009508;28;20116;-84
2023/07/13 12:36:05;;;;;;;0.00;0.00;;;;;;;29.01;nan;100638.25;5009232;28;20028;-83